^^
Saratoga-Weather Station Historical Data
Daily Summary for February 26, 2021 Units:  Both    English   Metric
Daily Weekly Monthly Yearly Custom
  High: Low: Average:
Temperature: 48.6 °F /  9.2 °C 37.6 °F /  3.1 °C 43.9 °F /  6.6 °C
Dew Point: 44.1 °F /  6.7 °C 34.3 °F /  1.3 °C 40.1 °F /  4.5 °C
Humidity: 92% 80% 87%
Wind Speed: 8.9mph /  14.3km/h - 0.9mph /  1.5km/h
Wind Gust: 13mph /  20.9km/h - -
Wind- - SW
Pressure: 30.6 in /  1035.6 hPa 30.4 in /  1028.1 hPa -
Precipitation: 0.02 in /  0.5 mm    
Historical Graphs
 
 
Tabular Data for February 26, 2021
Time Temperature Dew Point Pressure Wind Wind Speed Wind Gust Humidity Rainfall Rate (Hourly) solar
00:09 46 °F /  7.8 °C 40.3 °F /  4.6 °C 30.4in /  1028.1hPa Calm     80% 0in /  0.0mm 0 W/m2
00:14 46 °F /  7.8 °C 40.5 °F /  4.7 °C 30.4in /  1028.5hPa Calm     81% 0in /  0.0mm 0 W/m2
00:19 45.7 °F /  7.6 °C 40.1 °F /  4.5 °C 30.4in /  1028.5hPa Calm     81% 0in /  0.0mm 0 W/m2
00:24 45.5 °F /  7.5 °C 40.1 °F /  4.5 °C 30.4in /  1028.5hPa Calm     81% 0in /  0.0mm 0 W/m2
00:29 45.3 °F /  7.4 °C 40.1 °F /  4.5 °C 30.4in /  1028.5hPa West 0.9mph /  1.4km/h 1mph /  1.6km/h 82% 0in /  0.0mm 0 W/m2
00:34 45.3 °F /  7.4 °C 40.1 °F /  4.5 °C 30.4in /  1028.5hPa Calm     82% 0in /  0.0mm 0 W/m2
00:39 45.1 °F /  7.3 °C 39.9 °F /  4.4 °C 30.4in /  1028.5hPa Calm   1mph /  1.6km/h 82% 0in /  0.0mm 0 W/m2
00:44 45.1 °F /  7.3 °C 40.3 °F /  4.6 °C 30.4in /  1028.5hPa Calm     83% 0in /  0.0mm 0 W/m2
00:49 45.1 °F /  7.3 °C 39.9 °F /  4.4 °C 30.4in /  1028.5hPa Calm   1mph /  1.6km/h 82% 0in /  0.0mm 0 W/m2
00:54 45.1 °F /  7.3 °C 40.3 °F /  4.6 °C 30.4in /  1028.5hPa Calm     83% 0in /  0.0mm 0 W/m2
00:59 45 °F /  7.2 °C 40.1 °F /  4.5 °C 30.4in /  1028.5hPa Calm     83% 0in /  0.0mm 0 W/m2
01:04 45 °F /  7.2 °C 40.1 °F /  4.5 °C 30.4in /  1028.5hPa Calm     83% 0in /  0.0mm 0 W/m2
01:09 45 °F /  7.2 °C 40.1 °F /  4.5 °C 30.4in /  1028.5hPa Calm     83% 0in /  0.0mm 0 W/m2
01:14 45 °F /  7.2 °C 40.5 °F /  4.7 °C 30.4in /  1028.5hPa Calm     84% 0in /  0.0mm 0 W/m2
01:19 45 °F /  7.2 °C 40.5 °F /  4.7 °C 30.4in /  1028.5hPa Calm     84% 0in /  0.0mm 0 W/m2
01:24 45 °F /  7.2 °C 40.1 °F /  4.5 °C 30.4in /  1028.5hPa Calm     83% 0in /  0.0mm 0 W/m2
01:29 44.8 °F /  7.1 °C 39.9 °F /  4.4 °C 30.4in /  1028.5hPa Calm     83% 0in /  0.0mm 0 W/m2
01:34 44.8 °F /  7.1 °C 39.9 °F /  4.4 °C 30.4in /  1028.5hPa Calm     83% 0in /  0.0mm 0 W/m2
01:39 44.6 °F /  7 °C 40.1 °F /  4.5 °C 30.4in /  1028.5hPa Calm     84% 0in /  0.0mm 0 W/m2
01:44 44.4 °F /  6.9 °C 39.9 °F /  4.4 °C 30.4in /  1028.5hPa Calm     84% 0in /  0.0mm 0 W/m2
01:49 44.1 °F /  6.7 °C 39.6 °F /  4.2 °C 30.4in /  1028.5hPa Calm     84% 0in /  0.0mm 0 W/m2
01:54 43.9 °F /  6.6 °C 39.7 °F /  4.3 °C 30.4in /  1028.5hPa Calm     85% 0in /  0.0mm 0 W/m2
01:59 43.7 °F /  6.5 °C 39.6 °F /  4.2 °C 30.4in /  1028.5hPa Calm     85% 0in /  0.0mm 0 W/m2
02:04 43.5 °F /  6.4 °C 39.4 °F /  4.1 °C 30.4in /  1028.5hPa Calm     85% 0in /  0.0mm 0 W/m2
02:09 43.5 °F /  6.4 °C 39.4 °F /  4.1 °C 30.4in /  1028.5hPa Calm     85% 0in /  0.0mm 0 W/m2
02:14 43.3 °F /  6.3 °C 39.2 °F /  4 °C 30.4in /  1028.5hPa West 0.9mph /  1.4km/h 2mph /  3.2km/h 85% 0in /  0.0mm 0 W/m2
02:19 43.3 °F /  6.3 °C 39.2 °F /  4 °C 30.4in /  1028.5hPa Calm     85% 0in /  0.0mm 0 W/m2
02:24 43.2 °F /  6.2 °C 39.2 °F /  4 °C 30.4in /  1028.8hPa Calm     86% 0in /  0.0mm 0 W/m2
02:29 43.2 °F /  6.2 °C 39.2 °F /  4 °C 30.4in /  1028.8hPa Calm     86% 0in /  0.0mm 0 W/m2
02:34 42.8 °F /  6 °C 38.8 °F /  3.8 °C 30.4in /  1028.8hPa Calm     86% 0in /  0.0mm 0 W/m2
02:39 42.6 °F /  5.9 °C 39 °F /  3.9 °C 30.4in /  1028.8hPa Calm     87% 0in /  0.0mm 0 W/m2
02:44 42.4 °F /  5.8 °C 38.8 °F /  3.8 °C 30.4in /  1028.8hPa Calm     87% 0in /  0.0mm 0 W/m2
02:49 42.4 °F /  5.8 °C 38.8 °F /  3.8 °C 30.4in /  1028.8hPa Calm     87% 0in /  0.0mm 0 W/m2
02:54 42.3 °F /  5.7 °C 38.7 °F /  3.7 °C 30.4in /  1028.8hPa Calm     87% 0in /  0.0mm 0 W/m2
02:59 42.3 °F /  5.7 °C 38.7 °F /  3.7 °C 30.4in /  1028.8hPa Calm     87% 0in /  0.0mm 0 W/m2
03:04 42.3 °F /  5.7 °C 39 °F /  3.9 °C 30.4in /  1028.5hPa Calm     88% 0in /  0.0mm 0 W/m2
03:09 42.3 °F /  5.7 °C 39 °F /  3.9 °C 30.4in /  1028.5hPa Calm     88% 0in /  0.0mm 0 W/m2
03:14 42.3 °F /  5.7 °C 39.2 °F /  4 °C 30.4in /  1028.5hPa Calm   1mph /  1.6km/h 89% 0in /  0.0mm 0 W/m2
03:19 42.3 °F /  5.7 °C 39.2 °F /  4 °C 30.4in /  1028.5hPa Calm     89% 0in /  0.0mm 0 W/m2
03:24 42.4 °F /  5.8 °C 39.4 °F /  4.1 °C 30.4in /  1028.5hPa Calm   1mph /  1.6km/h 89% 0in /  0.0mm 0 W/m2
03:29 42.4 °F /  5.8 °C 39.4 °F /  4.1 °C 30.4in /  1028.5hPa West 0.9mph /  1.4km/h 1mph /  1.6km/h 89% 0in /  0.0mm 0 W/m2
03:34 42.6 °F /  5.9 °C 39.6 °F /  4.2 °C 30.4in /  1028.5hPa Calm   1mph /  1.6km/h 89% 0in /  0.0mm 0 W/m2
03:44 42.6 °F /  5.9 °C 39.6 °F /  4.2 °C 30.4in /  1028.5hPa Calm   1mph /  1.6km/h 89% 0in /  0.0mm 0 W/m2
03:49 42.6 °F /  5.9 °C 39.6 °F /  4.2 °C 30.4in /  1028.1hPa Calm     89% 0in /  0.0mm 0 W/m2
03:54 42.6 °F /  5.9 °C 39.6 °F /  4.2 °C 30.4in /  1028.5hPa Calm     89% 0in /  0.0mm 0 W/m2
03:59 42.8 °F /  6 °C 39.7 °F /  4.3 °C 30.4in /  1028.1hPa Calm   2mph /  3.2km/h 89% 0in /  0.0mm 0 W/m2
04:04 43 °F /  6.1 °C 40.3 °F /  4.6 °C 30.4in /  1028.5hPa Calm   1mph /  1.6km/h 90% 0in /  0.0mm 0 W/m2
04:09 43.2 °F /  6.2 °C 40.5 °F /  4.7 °C 30.4in /  1028.5hPa West 0.9mph /  1.4km/h 2mph /  3.2km/h 90% 0in /  0.0mm 0 W/m2
04:14 43.5 °F /  6.4 °C 40.8 °F /  4.9 °C 30.4in /  1028.5hPa West 2mph /  3.2km/h 3mph /  4.8km/h 90% 0in /  0.0mm 0 W/m2
04:19 44.1 °F /  6.7 °C 41 °F /  5 °C 30.4in /  1028.5hPa West 2mph /  3.2km/h 2mph /  3.2km/h 89% 0in /  0.0mm 0 W/m2
04:24 44.2 °F /  6.8 °C 41 °F /  5 °C 30.4in /  1028.5hPa Calm   3mph /  4.8km/h 88% 0in /  0.0mm 0 W/m2
04:29 44.4 °F /  6.9 °C 41.2 °F /  5.1 °C 30.4in /  1028.5hPa West 0.9mph /  1.4km/h 1mph /  1.6km/h 88% 0in /  0.0mm 0 W/m2
04:39 46.9 °F /  8.3 °C 43.5 °F /  6.4 °C 30.4in /  1028.1hPa West 0.9mph /  1.4km/h 7mph /  11.3km/h 88% 0in /  0.0mm 0 W/m2
04:44 48.2 °F /  9 °C 43.5 °F /  6.4 °C 30.4in /  1028.1hPa West 2mph /  3.2km/h 4mph /  6.4km/h 84% 0in /  0.0mm 0 W/m2
04:49 48.6 °F /  9.2 °C 43.7 °F /  6.5 °C 30.4in /  1028.1hPa Calm   7mph /  11.3km/h 83% 0in /  0.0mm 0 W/m2
04:54 48.6 °F /  9.2 °C 43.3 °F /  6.3 °C 30.4in /  1028.1hPa Calm   1mph /  1.6km/h 82% 0in /  0.0mm 0 W/m2
04:59 48 °F /  8.9 °C 42.1 °F /  5.6 °C 30.4in /  1028.5hPa Calm     80% 0in /  0.0mm 0 W/m2
05:04 47.7 °F /  8.7 °C 41.7 °F /  5.4 °C 30.4in /  1028.5hPa Calm   2mph /  3.2km/h 80% 0in /  0.0mm 0 W/m2
05:09 47.1 °F /  8.4 °C 41.5 °F /  5.3 °C 30.4in /  1028.5hPa Calm   1mph /  1.6km/h 81% 0in /  0.0mm 0 W/m2
05:14 46.9 °F /  8.3 °C 41.7 °F /  5.4 °C 30.4in /  1028.5hPa Calm     82% 0in /  0.0mm 0 W/m2
05:19 46.6 °F /  8.1 °C 41.4 °F /  5.2 °C 30.4in /  1028.5hPa Calm     82% 0in /  0.0mm 0 W/m2
05:24 46.2 °F /  7.9 °C 41.4 °F /  5.2 °C 30.4in /  1028.5hPa Calm   1mph /  1.6km/h 83% 0in /  0.0mm 0 W/m2
05:29 46 °F /  7.8 °C 41.2 °F /  5.1 °C 30.4in /  1028.5hPa Calm     83% 0in /  0.0mm 0 W/m2
05:34 45.7 °F /  7.6 °C 40.8 °F /  4.9 °C 30.4in /  1028.5hPa NW 0.9mph /  1.4km/h 2mph /  3.2km/h 83% 0in /  0.0mm 0 W/m2
05:39 45.1 °F /  7.3 °C 40.3 °F /  4.6 °C 30.4in /  1028.8hPa Calm     83% 0in /  0.0mm 0 W/m2
05:44 44.8 °F /  7.1 °C 40.3 °F /  4.6 °C 30.4in /  1028.8hPa Calm     84% 0in /  0.0mm 0 W/m2
05:49 44.4 °F /  6.9 °C 39.9 °F /  4.4 °C 30.4in /  1028.8hPa Calm   2mph /  3.2km/h 84% 0in /  0.0mm 0 W/m2
05:54 44.2 °F /  6.8 °C 40.1 °F /  4.5 °C 30.4in /  1028.8hPa Calm     85% 0in /  0.0mm 0 W/m2
06:04 44.1 °F /  6.7 °C 40.1 °F /  4.5 °C 30.4in /  1028.8hPa Calm     86% 0in /  0.0mm 0 W/m2
06:09 44.1 °F /  6.7 °C 40.5 °F /  4.7 °C 30.4in /  1028.8hPa Calm     87% 0in /  0.0mm 0 W/m2
06:14 44.1 °F /  6.7 °C 40.5 °F /  4.7 °C 30.4in /  1028.8hPa Calm     87% 0in /  0.0mm 0 W/m2
06:19 44.2 °F /  6.8 °C 40.6 °F /  4.8 °C 30.4in /  1028.5hPa Calm   2mph /  3.2km/h 87% 0in /  0.0mm 0 W/m2
06:24 44.4 °F /  6.9 °C 41.2 °F /  5.1 °C 30.4in /  1028.5hPa Calm   1mph /  1.6km/h 88% 0in /  0.0mm 0 W/m2
06:29 44.8 °F /  7.1 °C 41.4 °F /  5.2 °C 30.4in /  1028.8hPa Calm   1mph /  1.6km/h 88% 0in /  0.0mm 0 W/m2
06:34 45.1 °F /  7.3 °C 41.5 °F /  5.3 °C 30.4in /  1028.8hPa Calm   1mph /  1.6km/h 87% 0in /  0.0mm 0 W/m2
06:39 45.3 °F /  7.4 °C 41.7 °F /  5.4 °C 30.4in /  1028.8hPa WNW 0.9mph /  1.4km/h 3mph /  4.8km/h 87% 0in /  0.0mm 0 W/m2
06:44 45.7 °F /  7.6 °C 42.1 °F /  5.6 °C 30.4in /  1028.8hPa Calm     87% 0in /  0.0mm 0 W/m2
06:49 45.9 °F /  7.7 °C 41.9 °F /  5.5 °C 30.4in /  1028.8hPa WNW 0.9mph /  1.4km/h 1mph /  1.6km/h 86% 0in /  0.0mm 0 W/m2
06:54 46 °F /  7.8 °C 42.1 °F /  5.6 °C 30.4in /  1028.8hPa Calm   2mph /  3.2km/h 86% 0in /  0.0mm 0 W/m2
06:59 46 °F /  7.8 °C 42.1 °F /  5.6 °C 30.4in /  1028.8hPa WNW 0.9mph /  1.4km/h 3mph /  4.8km/h 86% 0in /  0.0mm 0 W/m2
07:04 46.4 °F /  8 °C 42.8 °F /  6 °C 30.4in /  1028.5hPa West 0.9mph /  1.4km/h 3mph /  4.8km/h 87% 0in /  0.0mm 0 W/m2
07:09 46.8 °F /  8.2 °C 43.2 °F /  6.2 °C 30.4in /  1028.8hPa Calm   1mph /  1.6km/h 87% 0in /  0.0mm 0 W/m2
07:14 46.9 °F /  8.3 °C 42.6 °F /  5.9 °C 30.4in /  1028.8hPa WNW 0.9mph /  1.4km/h 1mph /  1.6km/h 85% 0in /  0.0mm 0 W/m2
07:19 46.9 °F /  8.3 °C 42.4 °F /  5.8 °C 30.4in /  1028.8hPa Calm     84% 0in /  0.0mm 0 W/m2
07:24 46.9 °F /  8.3 °C 42.4 °F /  5.8 °C 30.4in /  1028.8hPa Calm     84% 0in /  0.0mm 0 W/m2
07:29 46.9 °F /  8.3 °C 42.6 °F /  5.9 °C 30.4in /  1028.8hPa Calm     85% 0in /  0.0mm 0 W/m2
07:34 46.9 °F /  8.3 °C 43 °F /  6.1 °C 30.4in /  1028.8hPa South 0.9mph /  1.4km/h 2mph /  3.2km/h 86% 0in /  0.0mm 0 W/m2
07:39 46.9 °F /  8.3 °C 42.6 °F /  5.9 °C 30.4in /  1029.1hPa Calm   1mph /  1.6km/h 85% 0in /  0.0mm 0 W/m2
07:44 46.9 °F /  8.3 °C 42.6 °F /  5.9 °C 30.4in /  1029.1hPa Calm   1mph /  1.6km/h 85% 0in /  0.0mm 0 W/m2
07:49 46.9 °F /  8.3 °C 42.6 °F /  5.9 °C 30.4in /  1029.1hPa Calm     85% 0in /  0.0mm 0 W/m2
07:54 46.9 °F /  8.3 °C 42.6 °F /  5.9 °C 30.4in /  1029.1hPa Calm   1mph /  1.6km/h 85% 0in /  0.0mm 7 W/m2
07:59 46.9 °F /  8.3 °C 42.6 °F /  5.9 °C 30.4in /  1029.1hPa Calm     85% 0in /  0.0mm 11 W/m2
08:04 46.9 °F /  8.3 °C 42.6 °F /  5.9 °C 30.4in /  1029.5hPa Calm     85% 0in /  0.0mm 16 W/m2
08:09 46.9 °F /  8.3 °C 42.6 °F /  5.9 °C 30.4in /  1029.1hPa Calm     85% 0in /  0.0mm 18 W/m2
08:14 46.9 °F /  8.3 °C 42.6 °F /  5.9 °C 30.4in /  1029.5hPa Calm   1mph /  1.6km/h 85% 0in /  0.0mm 18 W/m2
08:19 46.9 °F /  8.3 °C 43 °F /  6.1 °C 30.4in /  1029.5hPa Calm     86% 0in /  0.0mm 14 W/m2
08:24 47.1 °F /  8.4 °C 43.2 °F /  6.2 °C 30.4in /  1029.5hPa Calm   1mph /  1.6km/h 86% 0in /  0.0mm 9 W/m2
08:29 47.1 °F /  8.4 °C 43.2 °F /  6.2 °C 30.4in /  1029.5hPa Calm     86% 0in /  0.0mm 9 W/m2
08:34 47.1 °F /  8.4 °C 43.2 °F /  6.2 °C 30.4in /  1029.5hPa Calm   2mph /  3.2km/h 86% 0in /  0.0mm 11 W/m2
08:39 47.1 °F /  8.4 °C 43.2 °F /  6.2 °C 30.4in /  1029.5hPa Calm     86% 0in /  0.0mm 11 W/m2
08:44 47.1 °F /  8.4 °C 43.2 °F /  6.2 °C 30.4in /  1029.5hPa Calm   2mph /  3.2km/h 86% 0in /  0.0mm 11 W/m2
08:49 47.1 °F /  8.4 °C 43.2 °F /  6.2 °C 30.4in /  1029.8hPa Calm     86% 0in /  0.0mm 16 W/m2
08:54 47.1 °F /  8.4 °C 43.2 °F /  6.2 °C 30.4in /  1029.8hPa Calm     86% 0in /  0.0mm 16 W/m2
08:59 47.3 °F /  8.5 °C 43.3 °F /  6.3 °C 30.4in /  1029.8hPa Calm     86% 0in /  0.0mm 11 W/m2
09:04 47.3 °F /  8.5 °C 43.3 °F /  6.3 °C 30.4in /  1029.8hPa NW 0.9mph /  1.4km/h 2mph /  3.2km/h 86% 0in /  0.0mm 11 W/m2
09:09 47.5 °F /  8.6 °C 43.5 °F /  6.4 °C 30.4in /  1030.1hPa North 0.9mph /  1.4km/h 2mph /  3.2km/h 86% 0in /  0.0mm 16 W/m2
09:14 47.5 °F /  8.6 °C 43.9 °F /  6.6 °C 30.4in /  1030.1hPa North 0.9mph /  1.4km/h 5mph /  8km/h 87% 0in /  0.0mm 16 W/m2
09:24 47.5 °F /  8.6 °C 44.1 °F /  6.7 °C 30.4in /  1030.1hPa WNW 2.9mph /  4.7km/h 5mph /  8km/h 88% 0in /  0.0mm 19 W/m2
09:29 47.1 °F /  8.4 °C 44.1 °F /  6.7 °C 30.4in /  1030.5hPa NNW 4mph /  6.4km/h 6mph /  9.7km/h 89% 0in /  0.0mm 23 W/m2
09:34 46.8 °F /  8.2 °C 43.3 °F /  6.3 °C 30.4in /  1030.5hPa NNE 4.9mph /  7.9km/h 6mph /  9.7km/h 88% 0in /  0.0mm 23 W/m2
09:39 46.4 °F /  8 °C 43.3 °F /  6.3 °C 30.4in /  1030.8hPa NNW 4mph /  6.4km/h 4mph /  6.4km/h 89% 0in /  0.0mm 32 W/m2
09:44 46 °F /  7.8 °C 43 °F /  6.1 °C 30.4in /  1030.5hPa NW 0.9mph /  1.4km/h 5mph /  8km/h 89% 0in /  0.0mm 30 W/m2
09:49 46 °F /  7.8 °C 43.3 °F /  6.3 °C 30.4in /  1030.5hPa WNW 4mph /  6.4km/h 7mph /  11.3km/h 90% 0in /  0.0mm 33 W/m2
09:54 45.9 °F /  7.7 °C 43.2 °F /  6.2 °C 30.4in /  1030.8hPa North 2.9mph /  4.7km/h 7mph /  11.3km/h 90% 0in /  0.0mm 32 W/m2
09:59 45.5 °F /  7.5 °C 42.8 °F /  6 °C 30.4in /  1030.8hPa SW 4mph /  6.4km/h 6mph /  9.7km/h 90% 0.01in /  0.2mm 39 W/m2
10:04 45.3 °F /  7.4 °C 42.6 °F /  5.9 °C 30.4in /  1030.8hPa NNE 2.9mph /  4.7km/h 6mph /  9.7km/h 90% 0.01in /  0.2mm 53 W/m2
10:09 45.1 °F /  7.3 °C 42.1 °F /  5.6 °C 30.4in /  1030.8hPa WNW 2mph /  3.2km/h 6mph /  9.7km/h 89% 0.01in /  0.2mm 65 W/m2
10:14 45.1 °F /  7.3 °C 42.1 °F /  5.6 °C 30.5in /  1031.2hPa Calm   3mph /  4.8km/h 89% 0.01in /  0.2mm 35 W/m2
10:19 45.1 °F /  7.3 °C 42.1 °F /  5.6 °C 30.5in /  1031.2hPa WNW 2mph /  3.2km/h 6mph /  9.7km/h 89% 0.01in /  0.2mm 26 W/m2
10:24 45.1 °F /  7.3 °C 42.1 °F /  5.6 °C 30.5in /  1031.2hPa West 2mph /  3.2km/h 7mph /  11.3km/h 89% 0.01in /  0.2mm 23 W/m2
10:39 45 °F /  7.2 °C 41.9 °F /  5.5 °C 30.5in /  1031.2hPa North 4mph /  6.4km/h 6mph /  9.7km/h 89% 0.01in /  0.2mm 16 W/m2
10:49 44.8 °F /  7.1 °C 41.7 °F /  5.4 °C 30.5in /  1031.2hPa NW 2.9mph /  4.7km/h 7mph /  11.3km/h 89% 0.01in /  0.2mm 19 W/m2
10:54 44.6 °F /  7 °C 41.9 °F /  5.5 °C 30.5in /  1031.5hPa NNW 0.9mph /  1.4km/h 3mph /  4.8km/h 90% 0.01in /  0.2mm 30 W/m2
10:59 44.4 °F /  6.9 °C 41.7 °F /  5.4 °C 30.5in /  1031.5hPa NW 0.9mph /  1.4km/h 3mph /  4.8km/h 90% 0in /  0.0mm 21 W/m2
11:04 44.2 °F /  6.8 °C 41.5 °F /  5.3 °C 30.5in /  1031.5hPa North 0.9mph /  1.4km/h 10mph /  16.1km/h 90% 0in /  0.0mm 18 W/m2
11:09 44.2 °F /  6.8 °C 41.5 °F /  5.3 °C 30.5in /  1031.5hPa NNW 2.9mph /  4.7km/h 4mph /  6.4km/h 90% 0in /  0.0mm 28 W/m2
11:14 44.1 °F /  6.7 °C 41.5 °F /  5.3 °C 30.5in /  1031.8hPa NNW 4mph /  6.4km/h 11mph /  17.7km/h 91% 0in /  0.0mm 40 W/m2
11:19 43.9 °F /  6.6 °C 41.4 °F /  5.2 °C 30.5in /  1031.8hPa WNW 2mph /  3.2km/h 12mph /  19.3km/h 91% 0in /  0.0mm 39 W/m2
11:24 43.7 °F /  6.5 °C 41.5 °F /  5.3 °C 30.5in /  1031.8hPa WNW 2.9mph /  4.7km/h 9mph /  14.5km/h 92% 0in /  0.0mm 42 W/m2
11:29 43.5 °F /  6.4 °C 41.4 °F /  5.2 °C 30.5in /  1031.8hPa NNW 2.9mph /  4.7km/h 12mph /  19.3km/h 92% 0in /  0.0mm 53 W/m2
11:34 43.5 °F /  6.4 °C 41.4 °F /  5.2 °C 30.5in /  1031.8hPa NNW 6mph /  9.7km/h 7mph /  11.3km/h 92% 0in /  0.0mm 51 W/m2
11:39 43.3 °F /  6.3 °C 41.2 °F /  5.1 °C 30.5in /  1032.2hPa WNW 4.9mph /  7.9km/h 6mph /  9.7km/h 92% 0in /  0.0mm 49 W/m2
11:44 43.3 °F /  6.3 °C 41.2 °F /  5.1 °C 30.5in /  1032.2hPa North 4mph /  6.4km/h 8mph /  12.9km/h 92% 0in /  0.0mm 46 W/m2
11:49 43.3 °F /  6.3 °C 41.2 °F /  5.1 °C 30.5in /  1032.2hPa South 4mph /  6.4km/h 7mph /  11.3km/h 92% 0in /  0.0mm 42 W/m2
11:54 43.5 °F /  6.4 °C 41 °F /  5 °C 30.5in /  1032.2hPa North 4mph /  6.4km/h 8mph /  12.9km/h 91% 0in /  0.0mm 46 W/m2
11:59 43.5 °F /  6.4 °C 41 °F /  5 °C 30.5in /  1032.2hPa NNW 2mph /  3.2km/h 4mph /  6.4km/h 91% 0in /  0.0mm 42 W/m2
12:04 43.9 °F /  6.6 °C 41.2 °F /  5.1 °C 30.5in /  1032.2hPa West 2mph /  3.2km/h 9mph /  14.5km/h 90% 0in /  0.0mm 69 W/m2
12:09 44.1 °F /  6.7 °C 41.4 °F /  5.2 °C 30.5in /  1032.2hPa NW 2mph /  3.2km/h 11mph /  17.7km/h 90% 0in /  0.0mm 77 W/m2
12:14 44.1 °F /  6.7 °C 41 °F /  5 °C 30.5in /  1032.2hPa NW 4mph /  6.4km/h 5mph /  8km/h 89% 0in /  0.0mm 81 W/m2
12:19 44.2 °F /  6.8 °C 41.2 °F /  5.1 °C 30.5in /  1032.2hPa North 0.9mph /  1.4km/h 4mph /  6.4km/h 89% 0in /  0.0mm 77 W/m2
12:24 44.2 °F /  6.8 °C 41.2 °F /  5.1 °C 30.5in /  1032.2hPa East 8.9mph /  14.3km/h 9mph /  14.5km/h 89% 0in /  0.0mm 95 W/m2
12:29 44.2 °F /  6.8 °C 41 °F /  5 °C 30.5in /  1031.8hPa NW 2mph /  3.2km/h 7mph /  11.3km/h 88% 0in /  0.0mm 105 W/m2
12:34 44.4 °F /  6.9 °C 40.8 °F /  4.9 °C 30.5in /  1032.2hPa North 2mph /  3.2km/h 4mph /  6.4km/h 87% 0in /  0.0mm 104 W/m2
12:39 44.4 °F /  6.9 °C 40.8 °F /  4.9 °C 30.5in /  1032.2hPa WNW 2mph /  3.2km/h 7mph /  11.3km/h 87% 0in /  0.0mm 70 W/m2
12:44 44.4 °F /  6.9 °C 40.8 °F /  4.9 °C 30.5in /  1032.2hPa NNW 2.9mph /  4.7km/h 4mph /  6.4km/h 87% 0in /  0.0mm 72 W/m2
12:49 44.4 °F /  6.9 °C 40.8 °F /  4.9 °C 30.5in /  1032.2hPa Calm   5mph /  8km/h 87% 0in /  0.0mm 62 W/m2
12:54 44.4 °F /  6.9 °C 40.8 °F /  4.9 °C 30.5in /  1032.2hPa NNW 4mph /  6.4km/h 10mph /  16.1km/h 87% 0in /  0.0mm 53 W/m2
12:59 44.2 °F /  6.8 °C 40.6 °F /  4.8 °C 30.5in /  1032.2hPa Calm   6mph /  9.7km/h 87% 0in /  0.0mm 76 W/m2
13:04 44.4 °F /  6.9 °C 41.2 °F /  5.1 °C 30.5in /  1032.2hPa NW 2mph /  3.2km/h 10mph /  16.1km/h 88% 0in /  0.0mm 81 W/m2
13:09 44.2 °F /  6.8 °C 41 °F /  5 °C 30.5in /  1032.5hPa WNW 2.9mph /  4.7km/h 5mph /  8km/h 88% 0in /  0.0mm 69 W/m2
13:14 44.2 °F /  6.8 °C 41 °F /  5 °C 30.5in /  1032.5hPa West 2.9mph /  4.7km/h 5mph /  8km/h 88% 0in /  0.0mm 56 W/m2
13:19 44.1 °F /  6.7 °C 40.8 °F /  4.9 °C 30.5in /  1032.5hPa NW 4mph /  6.4km/h 8mph /  12.9km/h 88% 0.01in /  0.2mm 69 W/m2
13:24 44.1 °F /  6.7 °C 40.8 °F /  4.9 °C 30.5in /  1032.5hPa NNW 8.1mph /  13km/h 8mph /  12.9km/h 88% 0.01in /  0.2mm 58 W/m2
13:29 43.9 °F /  6.6 °C 40.6 °F /  4.8 °C 30.5in /  1032.5hPa NNW 4.9mph /  7.9km/h 13mph /  20.9km/h 88% 0.01in /  0.2mm 63 W/m2
13:34 43.5 °F /  6.4 °C 40.3 °F /  4.6 °C 30.5in /  1032.5hPa NNW 4mph /  6.4km/h 8mph /  12.9km/h 88% 0.01in /  0.2mm 54 W/m2
13:39 43.3 °F /  6.3 °C 40.1 °F /  4.5 °C 30.5in /  1032.5hPa West 2.9mph /  4.7km/h 7mph /  11.3km/h 88% 0.01in /  0.2mm 60 W/m2
13:44 43.3 °F /  6.3 °C 40.1 °F /  4.5 °C 30.5in /  1032.5hPa West 2mph /  3.2km/h 9mph /  14.5km/h 88% 0.02in /  0.5mm 62 W/m2
13:49 43.3 °F /  6.3 °C 40.3 °F /  4.6 °C 30.5in /  1032.5hPa WNW 4.9mph /  7.9km/h 7mph /  11.3km/h 89% 0.02in /  0.5mm 56 W/m2
13:55 43.3 °F /  6.3 °C 40.1 °F /  4.5 °C 30.5in /  1032.5hPa NNW 0.9mph /  1.4km/h 7mph /  11.3km/h 88% 0.02in /  0.5mm 63 W/m2
14:05 43.3 °F /  6.3 °C 40.3 °F /  4.6 °C 30.5in /  1032.5hPa West 6mph /  9.7km/h 10mph /  16.1km/h 89% 0.02in /  0.5mm 77 W/m2
14:10 43.3 °F /  6.3 °C 40.3 °F /  4.6 °C 30.5in /  1032.5hPa West 2mph /  3.2km/h 10mph /  16.1km/h 89% 0.02in /  0.5mm 91 W/m2
14:15 43.3 °F /  6.3 °C 40.3 °F /  4.6 °C 30.5in /  1032.5hPa North 0.9mph /  1.4km/h 4mph /  6.4km/h 89% 0.02in /  0.5mm 121 W/m2
14:20 43.3 °F /  6.3 °C 40.3 °F /  4.6 °C 30.5in /  1032.5hPa North 4mph /  6.4km/h 10mph /  16.1km/h 89% 0.01in /  0.2mm 158 W/m2
14:25 43.3 °F /  6.3 °C 40.3 °F /  4.6 °C 30.5in /  1032.5hPa West 2mph /  3.2km/h 10mph /  16.1km/h 89% 0.01in /  0.2mm 160 W/m2
14:30 43.3 °F /  6.3 °C 40.1 °F /  4.5 °C 30.5in /  1032.5hPa West 0.9mph /  1.4km/h 3mph /  4.8km/h 88% 0.01in /  0.2mm 167 W/m2
14:35 43.5 °F /  6.4 °C 40.3 °F /  4.6 °C 30.5in /  1032.5hPa NNW 6mph /  9.7km/h 10mph /  16.1km/h 88% 0.01in /  0.2mm 144 W/m2
14:40 43.7 °F /  6.5 °C 40.5 °F /  4.7 °C 30.5in /  1032.2hPa SE 0.9mph /  1.4km/h 6mph /  9.7km/h 88% 0.01in /  0.2mm 141 W/m2
14:45 43.9 °F /  6.6 °C 40.3 °F /  4.6 °C 30.5in /  1032.5hPa NW 6mph /  9.7km/h 10mph /  16.1km/h 87% 0in /  0.0mm 125 W/m2
14:50 43.9 °F /  6.6 °C 39.9 °F /  4.4 °C 30.5in /  1032.5hPa East 2mph /  3.2km/h 4mph /  6.4km/h 86% 0in /  0.0mm 109 W/m2
14:55 44.1 °F /  6.7 °C 40.1 °F /  4.5 °C 30.5in /  1032.5hPa NE 2mph /  3.2km/h 8mph /  12.9km/h 86% 0in /  0.0mm 91 W/m2
15:00 44.2 °F /  6.8 °C 40.3 °F /  4.6 °C 30.5in /  1032.5hPa NE 2mph /  3.2km/h 5mph /  8km/h 86% 0in /  0.0mm 104 W/m2
15:05 44.2 °F /  6.8 °C 40.3 °F /  4.6 °C 30.5in /  1032.5hPa Calm   5mph /  8km/h 86% 0in /  0.0mm 146 W/m2
15:10 44.2 °F /  6.8 °C 40.1 °F /  4.5 °C 30.5in /  1032.5hPa ENE 2.9mph /  4.7km/h 4mph /  6.4km/h 85% 0in /  0.0mm 179 W/m2
15:15 44.4 °F /  6.9 °C 40.3 °F /  4.6 °C 30.5in /  1032.5hPa NNW 0.9mph /  1.4km/h 3mph /  4.8km/h 85% 0in /  0.0mm 160 W/m2
15:20 44.6 °F /  7 °C 40.6 °F /  4.8 °C 30.5in /  1032.5hPa NW 0.9mph /  1.4km/h 5mph /  8km/h 86% 0in /  0.0mm 118 W/m2
15:25 44.8 °F /  7.1 °C 40.5 °F /  4.7 °C 30.5in /  1032.5hPa ESE 2mph /  3.2km/h 4mph /  6.4km/h 85% 0in /  0.0mm 105 W/m2
15:30 44.8 °F /  7.1 °C 40.5 °F /  4.7 °C 30.5in /  1032.5hPa WSW 0.9mph /  1.4km/h 2mph /  3.2km/h 85% 0in /  0.0mm 102 W/m2
15:35 45 °F /  7.2 °C 40.6 °F /  4.8 °C 30.5in /  1032.5hPa ENE 2.9mph /  4.7km/h 4mph /  6.4km/h 85% 0in /  0.0mm 111 W/m2
15:45 44.8 °F /  7.1 °C 40.3 °F /  4.6 °C 30.5in /  1032.5hPa ENE 0.9mph /  1.4km/h 5mph /  8km/h 84% 0in /  0.0mm 111 W/m2
15:50 44.8 °F /  7.1 °C 40.5 °F /  4.7 °C 30.5in /  1032.5hPa East 0.9mph /  1.4km/h 6mph /  9.7km/h 85% 0in /  0.0mm 107 W/m2
15:55 44.8 °F /  7.1 °C 40.3 °F /  4.6 °C 30.5in /  1032.8hPa ENE 0.9mph /  1.4km/h 4mph /  6.4km/h 84% 0in /  0.0mm 100 W/m2
16:00 44.8 °F /  7.1 °C 40.5 °F /  4.7 °C 30.5in /  1032.5hPa ENE 2mph /  3.2km/h 4mph /  6.4km/h 85% 0in /  0.0mm 86 W/m2
16:05 44.8 °F /  7.1 °C 40.5 °F /  4.7 °C 30.5in /  1032.8hPa NNW 2mph /  3.2km/h 3mph /  4.8km/h 85% 0in /  0.0mm 70 W/m2
16:10 44.8 °F /  7.1 °C 40.5 °F /  4.7 °C 30.5in /  1032.8hPa NW 2mph /  3.2km/h 3mph /  4.8km/h 85% 0in /  0.0mm 62 W/m2
16:15 44.8 °F /  7.1 °C 40.5 °F /  4.7 °C 30.5in /  1032.8hPa NW 2mph /  3.2km/h 5mph /  8km/h 85% 0in /  0.0mm 63 W/m2
16:20 44.8 °F /  7.1 °C 40.5 °F /  4.7 °C 30.5in /  1032.8hPa NE 0.9mph /  1.4km/h 3mph /  4.8km/h 85% 0in /  0.0mm 74 W/m2
16:25 44.8 °F /  7.1 °C 40.5 °F /  4.7 °C 30.5in /  1032.8hPa SSW 0.9mph /  1.4km/h 5mph /  8km/h 85% 0in /  0.0mm 69 W/m2
16:30 45 °F /  7.2 °C 40.6 °F /  4.8 °C 30.5in /  1032.8hPa East 0.9mph /  1.4km/h 3mph /  4.8km/h 85% 0in /  0.0mm 77 W/m2
16:35 45 °F /  7.2 °C 40.6 °F /  4.8 °C 30.5in /  1032.8hPa NE 2.9mph /  4.7km/h 3mph /  4.8km/h 85% 0in /  0.0mm 88 W/m2
16:40 45 °F /  7.2 °C 40.6 °F /  4.8 °C 30.5in /  1032.8hPa ENE 0.9mph /  1.4km/h 1mph /  1.6km/h 85% 0in /  0.0mm 86 W/m2
16:45 45 °F /  7.2 °C 40.6 °F /  4.8 °C 30.5in /  1032.8hPa NW 0.9mph /  1.4km/h 3mph /  4.8km/h 85% 0in /  0.0mm 69 W/m2
16:50 45 °F /  7.2 °C 40.6 °F /  4.8 °C 30.5in /  1032.8hPa East 0.9mph /  1.4km/h 2mph /  3.2km/h 85% 0in /  0.0mm 56 W/m2
16:55 45 °F /  7.2 °C 40.6 °F /  4.8 °C 30.5in /  1032.8hPa East 0.9mph /  1.4km/h 2mph /  3.2km/h 85% 0in /  0.0mm 46 W/m2
17:00 45 °F /  7.2 °C 40.5 °F /  4.7 °C 30.5in /  1032.8hPa Calm   1mph /  1.6km/h 84% 0in /  0.0mm 47 W/m2
17:05 45 °F /  7.2 °C 40.6 °F /  4.8 °C 30.5in /  1032.8hPa ENE 0.9mph /  1.4km/h 1mph /  1.6km/h 85% 0in /  0.0mm 47 W/m2
17:15 45.1 °F /  7.3 °C 40.6 °F /  4.8 °C 30.5in /  1032.8hPa Calm   2mph /  3.2km/h 84% 0in /  0.0mm 46 W/m2
17:20 45.1 °F /  7.3 °C 40.6 °F /  4.8 °C 30.5in /  1032.8hPa Calm     84% 0in /  0.0mm 42 W/m2
17:25 45.1 °F /  7.3 °C 40.8 °F /  4.9 °C 30.5in /  1032.8hPa Calm   1mph /  1.6km/h 85% 0in /  0.0mm 39 W/m2
17:30 45.1 °F /  7.3 °C 40.8 °F /  4.9 °C 30.5in /  1032.8hPa Calm     85% 0in /  0.0mm 33 W/m2
17:35 45 °F /  7.2 °C 40.6 °F /  4.8 °C 30.5in /  1032.8hPa Calm   2mph /  3.2km/h 85% 0in /  0.0mm 30 W/m2
17:40 45 °F /  7.2 °C 40.6 °F /  4.8 °C 30.5in /  1032.8hPa NE 0.9mph /  1.4km/h 1mph /  1.6km/h 85% 0in /  0.0mm 26 W/m2
17:45 44.8 °F /  7.1 °C 40.5 °F /  4.7 °C 30.5in /  1032.8hPa Calm     85% 0in /  0.0mm 19 W/m2
17:50 44.6 °F /  7 °C 40.5 °F /  4.7 °C 30.5in /  1033.2hPa Calm     85% 0in /  0.0mm 14 W/m2
17:55 44.4 °F /  6.9 °C 40.3 °F /  4.6 °C 30.5in /  1033.2hPa Calm   1mph /  1.6km/h 85% 0in /  0.0mm 12 W/m2
18:00 44.2 °F /  6.8 °C 40.1 °F /  4.5 °C 30.5in /  1033.2hPa Calm     85% 0in /  0.0mm 12 W/m2
18:05 43.9 °F /  6.6 °C 39.9 °F /  4.4 °C 30.5in /  1033.2hPa Calm   1mph /  1.6km/h 86% 0in /  0.0mm 5 W/m2
18:10 43.7 °F /  6.5 °C 40.1 °F /  4.5 °C 30.5in /  1033.2hPa Calm     87% 0in /  0.0mm 0 W/m2
18:15 43.5 °F /  6.4 °C 39.9 °F /  4.4 °C 30.5in /  1033.2hPa Calm     87% 0in /  0.0mm 0 W/m2
18:20 43.3 °F /  6.3 °C 39.7 °F /  4.3 °C 30.5in /  1033.5hPa Calm     87% 0in /  0.0mm 0 W/m2
18:25 43.3 °F /  6.3 °C 40.1 °F /  4.5 °C 30.5in /  1033.5hPa Calm     88% 0in /  0.0mm 0 W/m2
18:30 43.2 °F /  6.2 °C 39.9 °F /  4.4 °C 30.5in /  1033.5hPa Calm     88% 0in /  0.0mm 0 W/m2
18:35 43.2 °F /  6.2 °C 40.1 °F /  4.5 °C 30.5in /  1033.5hPa Calm     89% 0in /  0.0mm 0 W/m2
18:40 43.2 °F /  6.2 °C 40.1 °F /  4.5 °C 30.5in /  1033.5hPa Calm     89% 0in /  0.0mm 0 W/m2
18:50 43.2 °F /  6.2 °C 40.1 °F /  4.5 °C 30.5in /  1033.5hPa Calm     89% 0in /  0.0mm 0 W/m2
18:55 43.2 °F /  6.2 °C 40.1 °F /  4.5 °C 30.5in /  1033.5hPa Calm     89% 0in /  0.0mm 0 W/m2
19:01 43 °F /  6.1 °C 39.9 °F /  4.4 °C 30.5in /  1033.9hPa Calm     89% 0in /  0.0mm 0 W/m2
19:06 42.8 °F /  6 °C 39.7 °F /  4.3 °C 30.5in /  1033.9hPa Calm     89% 0in /  0.0mm 0 W/m2
19:11 42.6 °F /  5.9 °C 39.6 °F /  4.2 °C 30.5in /  1033.9hPa Calm     89% 0in /  0.0mm 0 W/m2
19:16 42.4 °F /  5.8 °C 39.7 °F /  4.3 °C 30.5in /  1033.9hPa Calm     90% 0in /  0.0mm 0 W/m2
19:21 42.4 °F /  5.8 °C 39.7 °F /  4.3 °C 30.5in /  1033.9hPa Calm     90% 0in /  0.0mm 0 W/m2
19:26 42.4 °F /  5.8 °C 39.7 °F /  4.3 °C 30.5in /  1033.9hPa Calm     90% 0in /  0.0mm 0 W/m2
19:31 42.4 °F /  5.8 °C 39.7 °F /  4.3 °C 30.5in /  1033.9hPa NE 0.9mph /  1.4km/h 2mph /  3.2km/h 90% 0in /  0.0mm 0 W/m2
19:36 42.4 °F /  5.8 °C 39.9 °F /  4.4 °C 30.5in /  1034.2hPa Calm     91% 0in /  0.0mm 0 W/m2
19:41 42.4 °F /  5.8 °C 39.9 °F /  4.4 °C 30.5in /  1034.2hPa Calm     91% 0in /  0.0mm 0 W/m2
19:46 42.4 °F /  5.8 °C 39.9 °F /  4.4 °C 30.5in /  1033.9hPa Calm     91% 0in /  0.0mm 0 W/m2
19:51 42.6 °F /  5.9 °C 40.1 °F /  4.5 °C 30.5in /  1033.9hPa NE 0.9mph /  1.4km/h 1mph /  1.6km/h 91% 0in /  0.0mm 0 W/m2
19:56 42.6 °F /  5.9 °C 40.1 °F /  4.5 °C 30.5in /  1034.2hPa Calm   1mph /  1.6km/h 91% 0in /  0.0mm 0 W/m2
20:01 42.6 °F /  5.9 °C 40.1 °F /  4.5 °C 30.5in /  1033.9hPa West 2mph /  3.2km/h 2mph /  3.2km/h 91% 0in /  0.0mm 0 W/m2
20:06 42.6 °F /  5.9 °C 40.1 °F /  4.5 °C 30.5in /  1034.2hPa West 2mph /  3.2km/h 2mph /  3.2km/h 91% 0in /  0.0mm 0 W/m2
20:11 42.6 °F /  5.9 °C 39.9 °F /  4.4 °C 30.5in /  1033.9hPa West 0.9mph /  1.4km/h 3mph /  4.8km/h 90% 0in /  0.0mm 0 W/m2
20:16 42.6 °F /  5.9 °C 39.9 °F /  4.4 °C 30.5in /  1034.2hPa Calm   3mph /  4.8km/h 90% 0in /  0.0mm 0 W/m2
20:21 42.8 °F /  6 °C 39.7 °F /  4.3 °C 30.5in /  1034.2hPa Calm   1mph /  1.6km/h 89% 0in /  0.0mm 0 W/m2
20:26 42.6 °F /  5.9 °C 39.6 °F /  4.2 °C 30.5in /  1034.2hPa West 2mph /  3.2km/h 3mph /  4.8km/h 89% 0in /  0.0mm 0 W/m2
20:31 42.6 °F /  5.9 °C 39.4 °F /  4.1 °C 30.5in /  1034.2hPa Calm   2mph /  3.2km/h 88% 0in /  0.0mm 0 W/m2
20:36 42.4 °F /  5.8 °C 39.2 °F /  4 °C 30.5in /  1034.2hPa WSW 0.9mph /  1.4km/h 3mph /  4.8km/h 88% 0in /  0.0mm 0 W/m2
20:41 42.3 °F /  5.7 °C 38.7 °F /  3.7 °C 30.5in /  1034.2hPa West 2mph /  3.2km/h 2mph /  3.2km/h 87% 0in /  0.0mm 0 W/m2
20:46 42.1 °F /  5.6 °C 38.5 °F /  3.6 °C 30.5in /  1034.2hPa Calm   4mph /  6.4km/h 87% 0in /  0.0mm 0 W/m2
20:51 42.1 °F /  5.6 °C 38.1 °F /  3.4 °C 30.6in /  1034.5hPa Calm   1mph /  1.6km/h 86% 0in /  0.0mm 0 W/m2
20:56 41.9 °F /  5.5 °C 37.9 °F /  3.3 °C 30.6in /  1034.5hPa WSW 0.9mph /  1.4km/h 4mph /  6.4km/h 86% 0in /  0.0mm 0 W/m2
21:01 41.7 °F /  5.4 °C 37.6 °F /  3.1 °C 30.6in /  1034.5hPa Calm   2mph /  3.2km/h 85% 0in /  0.0mm 0 W/m2
21:06 41.5 °F /  5.3 °C 37 °F /  2.8 °C 30.6in /  1034.5hPa Calm   1mph /  1.6km/h 84% 0in /  0.0mm 0 W/m2
21:11 41.4 °F /  5.2 °C 36.9 °F /  2.7 °C 30.6in /  1034.5hPa Calm   2mph /  3.2km/h 84% 0in /  0.0mm 0 W/m2
21:16 41.2 °F /  5.1 °C 36.7 °F /  2.6 °C 30.6in /  1034.5hPa SSE 0.9mph /  1.4km/h 2mph /  3.2km/h 84% 0in /  0.0mm 0 W/m2
21:21 40.8 °F /  4.9 °C 36.3 °F /  2.4 °C 30.6in /  1034.5hPa Calm     84% 0in /  0.0mm 0 W/m2
21:26 40.6 °F /  4.8 °C 36.1 °F /  2.3 °C 30.6in /  1034.5hPa SSE 0.9mph /  1.4km/h 1mph /  1.6km/h 84% 0in /  0.0mm 0 W/m2
21:31 40.3 °F /  4.6 °C 35.8 °F /  2.1 °C 30.6in /  1034.5hPa Calm   1mph /  1.6km/h 84% 0in /  0.0mm 0 W/m2
21:36 39.9 °F /  4.4 °C 35.8 °F /  2.1 °C 30.6in /  1034.9hPa Calm     85% 0in /  0.0mm 0 W/m2
21:41 39.7 °F /  4.3 °C 35.6 °F /  2 °C 30.6in /  1034.9hPa Calm     85% 0in /  0.0mm 0 W/m2
21:46 39.6 °F /  4.2 °C 35.4 °F /  1.9 °C 30.6in /  1034.9hPa Calm     85% 0in /  0.0mm 0 W/m2
21:51 39.4 °F /  4.1 °C 35.6 °F /  2 °C 30.6in /  1034.9hPa Calm     86% 0in /  0.0mm 0 W/m2
21:56 39.2 °F /  4 °C 35.6 °F /  2 °C 30.6in /  1035.2hPa Calm     87% 0in /  0.0mm 0 W/m2
22:01 39 °F /  3.9 °C 35.8 °F /  2.1 °C 30.6in /  1035.2hPa Calm     88% 0in /  0.0mm 0 W/m2
22:06 39 °F /  3.9 °C 35.8 °F /  2.1 °C 30.6in /  1035.2hPa Calm     88% 0in /  0.0mm 0 W/m2
22:11 39 °F /  3.9 °C 35.8 °F /  2.1 °C 30.6in /  1035.2hPa Calm     88% 0in /  0.0mm 0 W/m2
22:16 38.8 °F /  3.8 °C 35.6 °F /  2 °C 30.6in /  1035.6hPa Calm     88% 0in /  0.0mm 0 W/m2
22:21 38.8 °F /  3.8 °C 35.6 °F /  2 °C 30.6in /  1035.6hPa Calm   1mph /  1.6km/h 88% 0in /  0.0mm 0 W/m2
22:26 38.7 °F /  3.7 °C 35.8 °F /  2.1 °C 30.6in /  1035.6hPa Calm     89% 0in /  0.0mm 0 W/m2
22:31 38.8 °F /  3.8 °C 36 °F /  2.2 °C 30.6in /  1035.6hPa Calm     89% 0in /  0.0mm 0 W/m2
22:36 38.8 °F /  3.8 °C 36.1 °F /  2.3 °C 30.6in /  1035.6hPa Calm   1mph /  1.6km/h 90% 0in /  0.0mm 0 W/m2
22:41 38.8 °F /  3.8 °C 36.1 °F /  2.3 °C 30.6in /  1035.6hPa Calm     90% 0in /  0.0mm 0 W/m2
22:46 38.8 °F /  3.8 °C 36.1 °F /  2.3 °C 30.6in /  1035.6hPa SSE 0.9mph /  1.4km/h 2mph /  3.2km/h 90% 0in /  0.0mm 0 W/m2
22:51 38.7 °F /  3.7 °C 35.8 °F /  2.1 °C 30.6in /  1035.6hPa Calm   1mph /  1.6km/h 89% 0in /  0.0mm 0 W/m2
22:56 38.7 °F /  3.7 °C 35.8 °F /  2.1 °C 30.6in /  1035.6hPa Calm   2mph /  3.2km/h 89% 0in /  0.0mm 0 W/m2
23:01 38.5 °F /  3.6 °C 35.6 °F /  2 °C 30.6in /  1035.6hPa Calm     89% 0in /  0.0mm 0 W/m2
23:06 38.5 °F /  3.6 °C 35.6 °F /  2 °C 30.6in /  1035.6hPa Calm     89% 0in /  0.0mm 0 W/m2
23:11 38.3 °F /  3.5 °C 35.4 °F /  1.9 °C 30.6in /  1035.2hPa Calm   1mph /  1.6km/h 89% 0in /  0.0mm 0 W/m2
23:17 38.1 °F /  3.4 °C 35.2 °F /  1.8 °C 30.6in /  1035.6hPa Calm     89% 0in /  0.0mm 0 W/m2
23:27 37.9 °F /  3.3 °C 35.1 °F /  1.7 °C 30.6in /  1035.6hPa Calm     89% 0in /  0.0mm 0 W/m2
23:32 37.9 °F /  3.3 °C 34.7 °F /  1.5 °C 30.6in /  1035.6hPa Calm   1mph /  1.6km/h 88% 0in /  0.0mm 0 W/m2
23:37 37.8 °F /  3.2 °C 34.9 °F /  1.6 °C 30.6in /  1035.6hPa SSE 0.9mph /  1.4km/h 2mph /  3.2km/h 89% 0in /  0.0mm 0 W/m2
23:42 37.8 °F /  3.2 °C 34.5 °F /  1.4 °C 30.6in /  1035.6hPa Calm   2mph /  3.2km/h 88% 0in /  0.0mm 0 W/m2
23:47 37.6 °F /  3.1 °C 34.3 °F /  1.3 °C 30.6in /  1035.6hPa Calm   1mph /  1.6km/h 88% 0in /  0.0mm 0 W/m2
23:52 37.6 °F /  3.1 °C 34.3 °F /  1.3 °C 30.6in /  1035.6hPa Calm   2mph /  3.2km/h 88% 0in /  0.0mm 0 W/m2
23:57 37.8 °F /  3.2 °C 34.5 °F /  1.4 °C 30.6in /  1035.2hPa Calm     88% 0in /  0.0mm 0 W/m2
Juneau County Weather
Compliments of Weather Underground - 4 mb